Time;durP1;ratioP1;P1;durP2;ratioP2;P2;SDS_P1;SDS_P2;PMS_P1;PMS_P2;Temp;Humidity;BMP_temperature;BMP_pressure;BME280_temperature;BME280_humidity;BME280_pressure;Samples;Min_cycle;Max_cycle;Signal;HPM_P1;HPM_P2
2021/07/25 00:01:53;;;;;;;49.80;33.47;;;;;;;19.23;78.60;99527.34;5054073;28;20206;-70
2021/07/25 00:04:20;;;;;;;49.75;32.78;;;;;;;19.23;78.63;99526.53;5053594;28;20056;-70
2021/07/25 00:06:50;;;;;;;46.08;31.80;;;;;;;19.21;78.34;99531.75;5053988;28;20060;-70
2021/07/25 00:09:18;;;;;;;46.78;30.95;;;;;;;19.19;78.09;99537.81;5052582;28;20401;-70
2021/07/25 00:11:48;;;;;;;51.17;35.20;;;;;;;19.21;78.09;99537.41;5053152;28;20060;-70
2021/07/25 00:14:16;;;;;;;56.30;36.67;;;;;;;19.17;78.11;99531.75;5053658;28;20052;-70
2021/07/25 00:16:43;;;;;;;56.08;36.15;;;;;;;19.18;77.94;99533.34;5053674;28;20433;-70
2021/07/25 00:19:12;;;;;;;57.85;37.70;;;;;;;19.12;77.61;99536.97;5053726;28;20048;-70
2021/07/25 00:21:41;;;;;;;67.88;37.45;;;;;;;19.07;77.58;99532.50;5053844;28;20409;-70
2021/07/25 00:24:10;;;;;;;70.90;39.17;;;;;;;19.02;77.48;99532.88;5053132;28;20400;-70
2021/07/25 00:26:45;;;;;;;71.18;39.45;;;;;;;18.97;77.80;99528.41;5053504;28;20052;-70
2021/07/25 00:29:12;;;;;;;76.00;40.92;;;;;;;18.94;77.70;99526.41;5053109;28;20052;-70
2021/07/25 00:31:43;;;;;;;78.57;42.63;;;;;;;18.92;77.89;99534.44;5047449;28;20049;-70
2021/07/25 00:34:22;;;;;;;76.88;40.58;;;;;;;18.90;78.18;99524.72;5033625;28;20064;-70
2021/07/25 00:36:50;;;;;;;81.07;41.95;;;;;;;18.88;78.25;99539.25;5033714;28;20496;-70
2021/07/25 00:39:18;;;;;;;71.80;39.83;;;;;;;18.89;78.21;99535.22;5042775;28;20509;-70
2021/07/25 00:41:46;;;;;;;72.28;40.55;;;;;;;18.89;78.29;99535.22;5053335;28;20061;-70
2021/07/25 00:44:13;;;;;;;71.43;40.22;;;;;;;18.91;78.70;99537.66;5052992;28;20057;-70
2021/07/25 00:46:41;;;;;;;77.13;41.47;;;;;;;18.90;78.79;99536.84;5053710;28;20063;-70
2021/07/25 00:49:09;;;;;;;63.78;39.28;;;;;;;18.93;79.19;99530.41;5053267;28;20064;-70
2021/07/25 00:51:36;;;;;;;77.55;41.85;;;;;;;18.95;79.07;99533.63;5053243;28;20059;-70
2021/07/25 00:54:04;;;;;;;66.68;38.47;;;;;;;19.00;79.05;99536.09;5052122;28;20465;-70
2021/07/25 00:56:35;;;;;;;64.72;39.20;;;;;;;19.05;79.07;99535.72;5053066;28;20053;-70
2021/07/25 00:59:04;;;;;;;57.35;35.83;;;;;;;19.13;79.27;99533.75;5053171;28;20053;-70
2021/07/25 01:01:32;;;;;;;51.20;32.78;;;;;;;19.16;79.12;99526.50;5052937;28;20045;-70
2021/07/25 01:04:16;;;;;;;46.58;31.42;;;;;;;19.19;78.98;99536.97;5053291;28;20048;-70
2021/07/25 01:07:13;;;;;;;45.03;30.50;;;;;;;19.25;78.54;99538.22;5053333;28;20064;-70
2021/07/25 01:09:48;;;;;;;43.08;29.60;;;;;;;19.27;78.55;99539.44;5039233;28;20053;-70
2021/07/25 01:12:23;;;;;;;39.45;28.05;;;;;;;19.32;78.65;99532.63;5053019;28;20146;-71
2021/07/25 01:14:55;;;;;;;41.50;28.60;;;;;;;19.35;78.50;99531.81;5053048;28;20052;-70
2021/07/25 01:17:27;;;;;;;42.67;28.77;;;;;;;19.37;78.45;99532.22;5052866;28;20049;-71
2021/07/25 01:19:59;;;;;;;39.75;28.73;;;;;;;19.38;78.43;99528.22;5052587;28;20053;-71
2021/07/25 01:22:29;;;;;;;38.60;28.17;;;;;;;19.42;78.36;99520.56;5052836;28;20386;-71
2021/07/25 01:24:57;;;;;;;36.78;26.25;;;;;;;19.44;78.39;99526.63;5052514;28;20052;-70
2021/07/25 01:27:32;;;;;;;37.88;25.80;;;;;;;19.47;78.16;99525.00;5052736;28;20056;-70
2021/07/25 01:30:07;;;;;;;34.08;25.02;;;;;;;19.48;78.07;99521.78;5052789;28;20044;-71
2021/07/25 01:32:35;;;;;;;31.23;24.17;;;;;;;19.46;77.90;99527.03;5052383;28;20053;-71
2021/07/25 01:35:05;;;;;;;31.50;24.45;;;;;;;19.48;77.65;99520.97;5052461;28;20060;-71
2021/07/25 01:37:35;;;;;;;35.30;25.15;;;;;;;19.42;77.43;99517.75;5052528;28;20045;-71
2021/07/25 01:40:10;;;;;;;;;;;;;;;19.32;77.21;99518.50;5053338;28;20065;-71
2021/07/25 01:42:40;;;;;;;40.08;26.33;;;;;;;19.30;77.49;99515.28;5052120;28;19927;-71
2021/07/25 01:45:07;;;;;;;;;;;;;;;19.22;77.46;99525.72;5052302;28;20528;-71
2021/07/25 01:47:38;;;;;;;42.85;28.63;;;;;;;19.21;77.43;99520.47;5052166;28;19920;-70
2021/07/25 01:50:09;;;;;;;43.38;29.08;;;;;;;19.18;77.67;99515.63;5052494;28;20489;-70
2021/07/25 01:52:36;;;;;;;51.75;30.73;;;;;;;19.11;77.62;99518.41;5052489;28;20061;-70
2021/07/25 01:55:05;;;;;;;50.80;31.73;;;;;;;19.09;77.78;99527.28;5052090;28;20052;-70
2021/07/25 01:57:32;;;;;;;50.67;32.43;;;;;;;19.09;77.72;99523.63;5052222;28;20068;-70
2021/07/25 02:00:00;;;;;;;49.67;31.10;;;;;;;19.08;77.67;99524.84;5052290;28;20831;-70
2021/07/25 02:02:27;;;;;;;42.83;29.55;;;;;;;19.02;77.86;99528.06;5051441;28;20049;-70
2021/07/25 02:04:55;;;;;;;41.30;28.55;;;;;;;19.03;78.02;99518.38;5052148;28;20057;-70
2021/07/25 02:07:24;;;;;;;47.47;28.40;;;;;;;18.99;78.48;99523.19;5052213;28;20060;-70
2021/07/25 02:09:51;;;;;;;39.22;27.60;;;;;;;19.00;78.45;99524.81;5050600;28;20049;-70
2021/07/25 02:12:19;;;;;;;42.95;28.50;;;;;;;19.05;78.45;99520.81;5052252;28;20056;-70
2021/07/25 02:14:46;;;;;;;37.70;26.23;;;;;;;19.08;78.64;99519.19;5052463;28;20495;-70
2021/07/25 02:17:13;;;;;;;35.17;26.50;;;;;;;19.11;78.91;99518.41;5052436;28;20049;-70
2021/07/25 02:19:41;;;;;;;33.67;24.75;;;;;;;19.11;78.96;99519.22;5052218;28;20057;-70
2021/07/25 02:22:08;;;;;;;36.35;25.73;;;;;;;19.13;78.90;99515.97;5051727;28;20500;-70
2021/07/25 02:24:40;;;;;;;37.08;25.38;;;;;;;19.15;78.98;99510.75;5051062;28;20379;-70
2021/07/25 02:27:07;;;;;;;35.22;25.50;;;;;;;19.18;79.34;99518.44;5052055;28;20061;-70
2021/07/25 02:29:35;;;;;;;33.83;24.90;;;;;;;19.20;79.36;99510.38;5052599;28;20049;-70
2021/07/25 02:32:02;;;;;;;31.27;23.10;;;;;;;19.25;79.27;99512.81;5052368;28;20056;-70
2021/07/25 02:34:33;;;;;;;31.02;23.17;;;;;;;19.26;79.37;99512.44;5051796;28;20064;-70
2021/07/25 02:37:00;;;;;;;29.85;22.65;;;;;;;19.30;79.54;99506.81;5051959;28;20053;-70
2021/07/25 02:39:28;;;;;;;32.78;23.52;;;;;;;19.35;79.49;99499.97;5050453;28;20049;-70
2021/07/25 02:41:56;;;;;;;30.60;23.58;;;;;;;19.37;79.18;99492.69;5052077;28;20063;-70
2021/07/25 02:44:24;;;;;;;34.40;24.08;;;;;;;19.35;79.17;99495.09;5051771;28;20049;-70
2021/07/25 02:46:51;;;;;;;29.63;23.27;;;;;;;19.41;79.24;99498.38;5051786;28;20069;-70
2021/07/25 02:49:18;;;;;;;32.72;24.13;;;;;;;19.39;79.22;99492.31;5051592;28;20053;-70
2021/07/25 02:51:46;;;;;;;35.40;25.05;;;;;;;19.40;78.95;99489.09;5051974;28;20060;-70
2021/07/25 02:54:15;;;;;;;36.45;25.95;;;;;;;19.35;78.37;99486.63;5051086;28;20056;-70
2021/07/25 02:56:42;;;;;;;39.47;26.92;;;;;;;19.35;78.55;99489.47;5055447;28;20041;-70
2021/07/25 02:59:15;;;;;;;38.70;26.08;;;;;;;19.32;78.06;99495.09;5055508;28;20052;-70
2021/07/25 03:01:48;;;;;;;41.92;26.63;;;;;;;19.29;78.10;99491.06;5054858;28;20060;-69
2021/07/25 03:04:16;;;;;;;43.15;27.25;;;;;;;19.26;78.10;99491.88;5055048;28;20053;-69
2021/07/25 03:06:43;;;;;;;44.47;28.23;;;;;;;19.20;78.07;99493.44;5055342;28;20057;-69
2021/07/25 03:09:10;;;;;;;50.22;28.85;;;;;;;19.15;78.07;99507.94;5055064;28;20053;-69
2021/07/25 03:11:41;;;;;;;43.70;29.40;;;;;;;19.11;78.01;99507.94;5054997;28;20049;-69
2021/07/25 03:14:12;;;;;;;41.83;27.05;;;;;;;18.96;79.47;99501.41;5055248;28;20056;-69
2021/07/25 03:16:39;;;;;;;43.42;28.65;;;;;;;18.96;78.99;99504.22;5055100;28;20052;-69
2021/07/25 03:19:07;;;;;;;39.53;26.15;;;;;;;18.95;79.18;99498.97;5055087;28;20056;-69
2021/07/25 03:21:34;;;;;;;48.58;29.50;;;;;;;18.86;79.27;99505.78;5054674;28;20421;-69
2021/07/25 03:24:04;;;;;;;44.42;29.58;;;;;;;18.83;79.29;99497.28;5053617;28;20474;-69
2021/07/25 03:26:32;;;;;;;43.72;27.95;;;;;;;18.80;79.09;99498.91;5054732;28;20080;-69
2021/07/25 03:28:59;;;;;;;41.38;27.10;;;;;;;18.75;79.13;99492.78;5054920;28;20045;-69
2021/07/25 03:31:28;;;;;;;45.90;28.25;;;;;;;18.70;78.92;99490.34;5054736;28;20057;-69
2021/07/25 03:33:55;;;;;;;47.13;29.65;;;;;;;18.61;79.20;99497.13;5054850;28;20083;-69
2021/07/25 03:36:24;;;;;;;56.38;31.92;;;;;;;18.61;79.04;99494.31;5054087;28;20056;-69
2021/07/25 03:38:51;;;;;;;52.20;29.33;;;;;;;18.59;78.85;99493.91;5053604;28;20512;-69
2021/07/25 03:41:19;;;;;;;52.47;30.52;;;;;;;18.58;78.79;99491.47;5055090;28;20049;-70
2021/07/25 03:43:46;;;;;;;50.30;29.75;;;;;;;18.58;78.60;99481.00;5054708;28;20059;-70
2021/07/25 03:46:14;;;;;;;50.13;29.70;;;;;;;18.53;78.65;99489.81;5055036;28;20045;-69
2021/07/25 03:48:43;;;;;;;50.40;29.17;;;;;;;18.47;78.36;99482.94;5054411;28;20049;-69
2021/07/25 03:51:11;;;;;;;45.85;29.95;;;;;;;18.44;78.56;99497.84;5053993;28;20064;-70
2021/07/25 03:53:39;;;;;;;52.95;30.17;;;;;;;18.41;78.55;99498.59;5046198;28;20045;-70
2021/07/25 03:56:06;;;;;;;52.63;30.88;;;;;;;18.38;78.66;99497.38;5054658;28;20064;-70
2021/07/25 03:58:34;;;;;;;47.25;28.38;;;;;;;18.41;78.24;99493.75;5054130;28;20049;-69
2021/07/25 04:01:02;;;;;;;49.15;28.20;;;;;;;18.38;78.21;99490.94;5054036;28;20055;-70
2021/07/25 04:03:30;;;;;;;43.15;26.55;;;;;;;18.35;78.16;99494.53;5054277;28;20405;-70
2021/07/25 04:06:02;;;;;;;43.83;26.35;;;;;;;18.32;78.33;99501.75;5054191;28;20500;-70
2021/07/25 04:08:32;;;;;;;48.53;28.00;;;;;;;18.35;78.25;99502.97;5052928;28;20417;-70
2021/07/25 04:11:01;;;;;;;46.05;27.15;;;;;;;18.29;78.02;99502.56;5054455;28;20049;-70
2021/07/25 04:13:28;;;;;;;46.25;26.83;;;;;;;18.28;77.90;99508.56;5053543;28;20056;-70
2021/07/25 04:15:56;;;;;;;45.28;26.63;;;;;;;18.23;78.28;99502.09;5053959;28;20393;-70
2021/07/25 04:18:23;;;;;;;48.45;28.45;;;;;;;18.24;78.04;99506.53;5054022;28;20053;-70
2021/07/25 04:20:51;;;;;;;43.30;25.58;;;;;;;18.24;78.03;99511.34;5053487;28;20060;-70
2021/07/25 04:23:20;;;;;;;42.63;26.38;;;;;;;18.22;78.00;99517.38;5052377;28;20049;-70
2021/07/25 04:25:47;;;;;;;38.53;24.27;;;;;;;18.19;77.82;99509.72;5053836;28;20053;-70
2021/07/25 04:28:15;;;;;;;43.95;25.92;;;;;;;18.17;77.80;99511.31;5053880;28;20072;-70
2021/07/25 04:30:43;;;;;;;45.22;25.95;;;;;;;18.17;77.80;99514.13;5053388;28;20072;-70
2021/07/25 04:33:15;;;;;;;44.50;24.42;;;;;;;18.18;77.80;99518.56;5053870;28;20056;-70
2021/07/25 04:35:43;;;;;;;35.25;23.35;;;;;;;18.13;78.36;99521.75;5053124;28;20060;-70
2021/07/25 04:38:10;;;;;;;38.55;23.40;;;;;;;18.19;78.19;99518.16;5052781;28;20053;-70
2021/07/25 04:40:44;;;;;;;37.33;24.10;;;;;;;18.19;77.92;99518.16;5053420;28;20056;-70
2021/07/25 04:43:17;;;;;;;29.75;21.00;;;;;;;18.25;78.20;99518.63;5053511;28;20060;-70
2021/07/25 04:45:51;;;;;;;34.22;22.08;;;;;;;18.32;77.95;99515.84;5053439;28;20378;-70
2021/07/25 04:48:24;;;;;;;35.95;22.30;;;;;;;18.37;77.75;99514.69;5053621;28;20049;-70
2021/07/25 04:50:56;;;;;;;31.67;21.27;;;;;;;18.37;78.03;99515.50;5053446;28;20064;-69
2021/07/25 04:53:26;;;;;;;36.40;22.13;;;;;;;18.46;77.92;99526.44;5052334;28;20056;-70
2021/07/25 04:55:59;;;;;;;35.33;22.38;;;;;;;18.52;78.05;99526.88;5052832;28;20057;-69
2021/07/25 04:58:37;;;;;;;30.13;22.30;;;;;;;18.57;78.08;99518.88;5052715;28;20057;-69
2021/07/25 05:01:05;;;;;;;34.63;21.15;;;;;;;18.56;77.93;99519.25;5053609;28;20056;-69
2021/07/25 05:03:34;;;;;;;34.47;21.92;;;;;;;18.62;77.88;99528.97;5052838;28;20045;-70
2021/07/25 05:06:02;;;;;;;34.47;24.00;;;;;;;18.71;77.76;99518.16;5053119;28;20052;-70
2021/07/25 05:08:30;;;;;;;44.17;23.92;;;;;;;18.75;77.11;99519.00;5052768;28;20374;-70
2021/07/25 05:11:11;;;;;;;37.58;24.20;;;;;;;18.76;76.98;99514.97;5053310;28;20059;-70
2021/07/25 05:13:43;;;;;;;34.80;23.58;;;;;;;18.83;77.06;99520.66;5051768;28;20064;-70
2021/07/25 05:16:14;;;;;;;37.42;22.95;;;;;;;18.90;76.93;99514.28;5052356;28;20057;-70
2021/07/25 05:18:49;;;;;;;33.25;22.25;;;;;;;18.97;76.44;99527.63;5051633;28;20041;-70
2021/07/25 05:21:30;;;;;;;28.75;21.20;;;;;;;19.04;76.27;99525.63;5053107;28;20063;-70
2021/07/25 05:24:02;;;;;;;29.50;20.25;;;;;;;19.11;76.40;99536.16;5052106;28;20053;-70
2021/07/25 05:26:36;;;;;;;28.85;21.10;;;;;;;19.24;76.37;99539.44;5052075;28;20060;-70
2021/07/25 05:29:04;;;;;;;30.65;18.75;;;;;;;19.37;76.48;99537.88;5052784;28;20049;-71
2021/07/25 05:31:33;;;;;;;19.17;14.80;;;;;;;19.40;76.34;99536.28;5052703;28;20048;-71
2021/07/25 05:34:02;;;;;;;14.18;12.60;;;;;;;19.53;75.78;99528.25;5052167;28;20503;-70
2021/07/25 05:36:31;;;;;;;16.50;11.75;;;;;;;19.65;75.37;99527.88;5052926;28;20497;-70
2021/07/25 05:38:59;;;;;;;15.48;12.27;;;;;;;19.58;75.81;99528.66;5050774;28;20049;-70
2021/07/25 05:41:26;;;;;;;12.43;11.13;;;;;;;19.66;74.94;99527.50;5053273;28;20045;-70
2021/07/25 05:43:55;;;;;;;15.73;11.23;;;;;;;19.83;75.25;99534.41;5052355;28;20057;-70
2021/07/25 05:46:22;;;;;;;13.48;10.27;;;;;;;19.84;74.24;99533.22;5052915;28;20048;-70
2021/07/25 05:48:50;;;;;;;14.93;10.95;;;;;;;19.97;74.45;99533.66;5052708;28;20048;-71
2021/07/25 05:51:17;;;;;;;17.38;13.05;;;;;;;20.04;74.43;99528.00;5052935;28;20053;-71
2021/07/25 05:53:45;;;;;;;19.98;14.55;;;;;;;20.13;74.64;99527.59;5051878;28;20060;-71
2021/07/25 05:56:12;;;;;;;17.33;14.57;;;;;;;20.15;74.81;99525.19;5050760;28;20048;-70
2021/07/25 05:58:40;;;;;;;18.80;14.77;;;;;;;20.22;74.59;99525.19;5052017;28;20469;-70
2021/07/25 06:01:08;;;;;;;18.63;13.25;;;;;;;20.30;74.22;99530.84;5052388;28;20067;-70
2021/07/25 06:03:36;;;;;;;13.85;12.30;;;;;;;20.38;73.78;99526.81;5052068;28;20059;-71
2021/07/25 06:06:07;;;;;;;14.98;12.60;;;;;;;20.45;72.96;99530.44;5052284;28;20497;-70
2021/07/25 06:08:34;;;;;;;15.45;12.80;;;;;;;20.50;73.15;99531.25;5052023;28;20401;-70
2021/07/25 06:11:02;;;;;;;11.50;10.25;;;;;;;20.65;72.04;99530.03;5051272;28;20389;-70
2021/07/25 06:13:29;;;;;;;11.18;9.52;;;;;;;20.65;72.01;99536.50;5052103;28;20053;-70
2021/07/25 06:15:56;;;;;;;11.27;8.32;;;;;;;20.80;70.65;99536.50;5052239;28;20052;-71
2021/07/25 06:18:25;;;;;;;10.50;7.45;;;;;;;20.78;69.65;99533.25;5052305;28;20485;-71
2021/07/25 06:20:53;;;;;;;8.07;7.28;;;;;;;20.85;69.54;99528.41;5051956;28;20408;-70
2021/07/25 06:23:20;;;;;;;8.35;6.78;;;;;;;21.04;68.11;99529.97;5051535;28;20056;-70
2021/07/25 06:25:48;;;;;;;8.27;6.93;;;;;;;21.23;67.33;99531.53;5051083;28;20057;-71
2021/07/25 06:28:16;;;;;;;7.50;6.35;;;;;;;21.32;67.07;99528.25;5052610;28;20485;-70
2021/07/25 06:30:43;;;;;;;8.20;6.30;;;;;;;21.31;66.70;99532.28;5053595;28;20045;-70
2021/07/25 06:33:14;;;;;;;10.60;6.32;;;;;;;21.32;66.62;99533.91;5054143;28;20052;-70
2021/07/25 06:35:43;;;;;;;7.57;5.72;;;;;;;21.54;66.11;99536.69;5055285;28;20432;-70
2021/07/25 06:38:13;;;;;;;6.88;5.63;;;;;;;21.73;65.27;99541.03;5052783;28;20481;-70
2021/07/25 06:40:43;;;;;;;7.10;6.40;;;;;;;21.48;66.29;99537.13;5055242;28;20060;-70
2021/07/25 06:43:11;;;;;;;6.60;5.90;;;;;;;21.93;65.02;99542.13;5055679;28;20052;-70
2021/07/25 06:45:38;;;;;;;8.18;6.95;;;;;;;22.03;63.21;99546.13;5055528;28;20064;-70
2021/07/25 06:48:17;;;;;;;7.70;6.30;;;;;;;22.16;63.59;99540.78;5055233;28;20053;-70
2021/07/25 06:50:48;;;;;;;7.28;6.38;;;;;;;22.35;63.01;99542.28;5055812;28;20044;-70
2021/07/25 06:53:16;;;;;;;8.52;6.53;;;;;;;22.22;63.85;99539.91;5055855;28;20064;-70
2021/07/25 06:55:46;;;;;;;6.75;5.60;;;;;;;22.48;63.10;99549.06;5050533;28;20366;-70
2021/07/25 06:58:13;;;;;;;6.82;5.57;;;;;;;22.58;62.42;99547.34;5053974;28;20049;-70
2021/07/25 07:00:41;;;;;;;9.55;5.38;;;;;;;22.72;62.08;99544.41;5045665;28;20049;-70
2021/07/25 07:03:08;;;;;;;7.70;5.55;;;;;;;22.75;61.46;99551.25;5054221;28;20060;-70
2021/07/25 07:05:35;;;;;;;7.72;5.65;;;;;;;23.06;60.91;99555.03;5054596;28;20053;-70
2021/07/25 07:08:06;;;;;;;6.50;5.05;;;;;;;23.24;59.64;99566.19;5045197;28;20049;-70
2021/07/25 07:10:35;;;;;;;6.05;4.85;;;;;;;23.25;60.41;99553.59;5052660;28;20056;-70
2021/07/25 07:13:04;;;;;;;7.97;5.32;;;;;;;23.34;60.24;99559.56;5055197;28;20063;-70
2021/07/25 07:15:32;;;;;;;6.03;5.13;;;;;;;23.51;60.09;99557.75;5055540;28;20061;-70
2021/07/25 07:18:00;;;;;;;6.97;4.78;;;;;;;23.73;58.22;99554.59;5054305;28;20049;-70
2021/07/25 07:20:28;;;;;;;5.05;4.43;;;;;;;23.87;58.34;99560.13;5054413;28;20390;-70
2021/07/25 07:22:57;;;;;;;6.22;5.40;;;;;;;24.02;58.07;99561.56;5053026;28;20478;-70
2021/07/25 07:25:27;;;;;;;7.35;5.13;;;;;;;24.34;57.41;99560.25;5053210;28;20049;-70
2021/07/25 07:27:55;;;;;;;7.60;5.38;;;;;;;24.81;55.92;99562.34;5054226;28;20049;-70
2021/07/25 07:30:23;;;;;;;6.30;4.90;;;;;;;25.12;55.98;99555.25;5055082;28;20053;-70
2021/07/25 07:32:53;;;;;;;5.63;4.88;;;;;;;25.63;54.70;99555.06;5054068;28;20049;-70
2021/07/25 07:35:23;;;;;;;10.23;4.95;;;;;;;25.97;53.97;99553.13;5035197;28;20076;-70
2021/07/25 07:37:51;;;;;;;5.53;4.45;;;;;;;26.33;51.71;99551.06;5046593;28;20064;-70
2021/07/25 07:40:19;;;;;;;5.95;4.70;;;;;;;26.00;51.23;99557.97;5052453;28;20056;-70
2021/07/25 07:42:48;;;;;;;7.40;5.22;;;;;;;25.89;51.28;99556.16;5041325;28;20414;-70
2021/07/25 07:45:18;;;;;;;5.55;4.38;;;;;;;26.09;50.78;99552.44;5044951;28;20045;-70
2021/07/25 07:47:46;;;;;;;6.78;4.82;;;;;;;26.51;50.02;99559.16;5049521;28;20053;-70
2021/07/25 07:50:13;;;;;;;6.20;4.55;;;;;;;26.40;50.25;99560.69;5047529;28;20374;-69
2021/07/25 07:52:40;;;;;;;6.60;4.95;;;;;;;27.25;48.87;99563.38;5046976;28;20056;-69
2021/07/25 07:55:09;;;;;;;7.40;4.70;;;;;;;28.39;46.46;99561.22;5054098;28;20049;-69
2021/07/25 07:57:37;;;;;;;5.10;4.57;;;;;;;28.68;45.49;99555.34;5053514;28;20052;-69
2021/07/25 08:00:07;;;;;;;6.68;4.43;;;;;;;28.52;44.32;99558.38;5053971;28;20049;-69
2021/07/25 08:02:34;;;;;;;6.03;4.70;;;;;;;28.63;44.18;99558.78;5054277;28;20060;-69
2021/07/25 08:05:02;;;;;;;5.30;4.28;;;;;;;29.58;42.11;99549.28;5053452;28;20508;-69
2021/07/25 08:07:29;;;;;;;5.63;4.50;;;;;;;29.85;41.10;99548.69;5054306;28;20057;-69
2021/07/25 08:09:57;;;;;;;4.95;4.05;;;;;;;29.74;40.62;99554.03;5053205;28;20044;-69
2021/07/25 08:12:24;;;;;;;4.88;4.10;;;;;;;29.19;42.64;99548.69;5054444;28;20049;-69
2021/07/25 08:14:52;;;;;;;7.00;4.45;;;;;;;30.30;40.12;99553.06;5054257;28;20073;-69
2021/07/25 08:17:21;;;;;;;6.55;4.68;;;;;;;31.10;38.57;99548.47;5054041;28;20060;-69
2021/07/25 08:19:48;;;;;;;6.70;4.85;;;;;;;32.07;38.39;99551.88;5054169;28;20056;-69
2021/07/25 08:22:15;;;;;;;6.25;4.35;;;;;;;32.88;36.67;99557.69;5053500;28;20045;-69
2021/07/25 08:24:43;;;;;;;5.07;4.47;;;;;;;33.59;35.07;99545.75;5052799;28;20059;-69
2021/07/25 08:27:11;;;;;;;6.95;5.07;;;;;;;34.12;32.71;99544.84;5053814;28;20061;-69
2021/07/25 08:29:39;;;;;;;5.68;4.07;;;;;;;35.11;32.51;99554.75;5053459;28;20063;-69
2021/07/25 08:32:07;;;;;;;5.50;4.40;;;;;;;34.37;32.78;99552.91;5053064;28;20048;-69
2021/07/25 08:34:35;;;;;;;5.90;4.10;;;;;;;33.91;33.50;99546.88;5053336;28;20057;-69
2021/07/25 08:37:03;;;;;;;;;;;;;;;34.30;31.05;99546.75;5053505;28;20056;-67
2021/07/25 08:39:30;;;;;;;5.22;3.92;;;;;;;34.31;32.92;99549.16;5051860;28;19920;-69
2021/07/25 08:42:05;;;;;;;4.75;4.32;;;;;;;34.07;33.14;99560.03;5052828;28;20045;-69
2021/07/25 08:44:42;;;;;;;5.32;4.45;;;;;;;34.71;31.09;99552.63;5053668;28;20064;-69
2021/07/25 08:47:18;;;;;;;4.90;4.15;;;;;;;34.56;32.89;99543.97;5046910;28;20059;-67
2021/07/25 08:49:53;;;;;;;6.85;4.28;;;;;;;34.03;31.97;99551.56;5033870;28;20064;-68
2021/07/25 08:52:23;;;;;;;4.97;4.30;;;;;;;34.26;31.33;99557.72;5047860;28;20056;-68
2021/07/25 08:54:51;;;;;;;6.10;4.40;;;;;;;35.17;31.62;99535.38;5049960;28;20053;-68
2021/07/25 08:57:20;;;;;;;7.05;4.18;;;;;;;36.14;30.41;99549.56;5053138;28;20115;-68
2021/07/25 08:59:52;;;;;;;4.97;4.22;;;;;;;36.40;28.85;99553.69;5053035;28;20049;-68
2021/07/25 09:02:22;;;;;;;7.00;4.13;;;;;;;36.60;29.01;99541.13;5053337;28;20059;-68
2021/07/25 09:04:52;;;;;;;5.00;4.18;;;;;;;37.71;27.43;99545.06;5052746;28;20414;-68
2021/07/25 09:07:21;;;;;;;4.22;3.83;;;;;;;37.90;26.72;99540.28;5053320;28;20059;-68
2021/07/25 09:09:51;;;;;;;5.38;3.67;;;;;;;39.07;25.77;99542.81;5052078;28;20052;-68
2021/07/25 09:12:20;;;;;;;5.18;3.90;;;;;;;39.47;24.65;99546.31;5053407;28;20049;-68
2021/07/25 09:14:50;;;;;;;4.10;3.72;;;;;;;39.64;23.36;99549.91;5052871;28;20045;-68
2021/07/25 09:17:18;;;;;;;5.55;4.03;;;;;;;39.25;24.35;99541.38;5053171;28;20052;-68
2021/07/25 09:20:03;;;;;;;;;;;;;;;40.45;22.39;99548.78;5053813;28;20071;-68
2021/07/25 09:22:32;;;;;;;6.05;3.42;;;;;;;42.14;21.24;99544.38;5043355;28;20269;-69
2021/07/25 09:25:01;;;;;;;6.43;4.28;;;;;;;43.50;19.58;99544.66;5051684;28;20053;-69
2021/07/25 09:27:28;;;;;;;4.50;4.10;;;;;;;43.09;18.88;99543.94;5053202;28;20049;-69
2021/07/25 09:29:56;;;;;;;4.65;3.85;;;;;;;42.60;19.24;99541.44;5052906;28;20053;-69
2021/07/25 09:32:23;;;;;;;5.43;3.90;;;;;;;42.82;19.41;99545.28;5053053;28;20496;-69
2021/07/25 09:34:51;;;;;;;3.95;3.33;;;;;;;43.91;18.44;99538.09;5052432;28;20064;-70
2021/07/25 09:37:20;;;;;;;3.65;3.35;;;;;;;44.54;18.13;99546.09;5052991;28;20410;-70
2021/07/25 09:39:52;;;;;;;4.05;3.60;;;;;;;43.78;17.50;99549.88;5051864;28;20057;-70
2021/07/25 09:42:28;;;;;;;4.57;3.72;;;;;;;43.78;17.57;99544.00;5052813;28;20504;-70
2021/07/25 09:44:59;;;;;;;5.22;4.03;;;;;;;43.67;17.38;99547.22;5056872;28;20044;-70
2021/07/25 09:47:32;;;;;;;3.90;3.50;;;;;;;43.64;17.67;99549.13;5052287;28;20057;-70
2021/07/25 09:50:02;;;;;;;4.85;3.70;;;;;;;42.50;18.17;99549.09;5052774;28;20060;-70
2021/07/25 09:52:31;;;;;;;3.80;2.47;;;;;;;43.13;17.56;99547.31;5053413;28;20474;-70
2021/07/25 09:55:00;;;;;;;3.28;2.90;;;;;;;42.96;18.10;99538.09;5052158;28;20064;-70
2021/07/25 09:57:29;;;;;;;3.70;3.17;;;;;;;43.50;17.67;99545.44;5052665;28;20052;-70
2021/07/25 09:59:58;;;;;;;3.58;3.00;;;;;;;44.70;16.86;99541.91;5051673;28;20045;-69
2021/07/25 10:02:37;;;;;;;3.30;3.00;;;;;;;45.68;16.13;99545.16;5049847;28;20068;-69
2021/07/25 10:05:13;;;;;;;3.58;3.10;;;;;;;46.06;14.48;99537.78;5055422;28;20053;-70
2021/07/25 10:07:41;;;;;;;4.15;2.70;;;;;;;46.89;14.84;99532.41;5062730;28;20053;-69
2021/07/25 10:10:13;;;;;;;4.43;2.97;;;;;;;47.52;13.21;99528.63;5056698;28;20236;-70
2021/07/25 10:12:42;;;;;;;3.08;2.70;;;;;;;47.22;13.88;99533.31;5039813;28;20049;-70
2021/07/25 10:15:11;;;;;;;3.78;3.22;;;;;;;45.05;15.34;99539.59;5036697;28;20061;-70
2021/07/25 10:17:42;;;;;;;3.38;3.08;;;;;;;47.56;14.94;99532.75;5038042;28;20050;-70
2021/07/25 10:20:11;;;;;;;3.45;3.00;;;;;;;49.06;12.48;99531.13;5056031;28;21050;-70
2021/07/25 10:22:40;;;;;;;3.85;3.08;;;;;;;49.13;12.38;99527.28;5056560;28;20381;-70
2021/07/25 10:25:12;;;;;;;4.00;3.00;;;;;;;49.02;11.82;99529.97;5055697;28;20457;-70
2021/07/25 10:27:40;;;;;;;4.10;2.50;;;;;;;46.19;13.97;99534.63;5056340;28;20504;-70
2021/07/25 10:30:12;;;;;;;4.88;3.15;;;;;;;45.74;14.40;99536.13;5056135;28;20386;-70
2021/07/25 10:32:42;;;;;;;3.40;3.10;;;;;;;45.73;14.00;99529.47;5056273;28;20053;-70
2021/07/25 10:35:12;;;;;;;3.30;2.60;;;;;;;45.95;13.91;99533.81;5053495;28;20056;-70
2021/07/25 10:37:41;;;;;;;3.92;1.88;;;;;;;42.22;15.76;99553.31;5036078;28;20072;-70
2021/07/25 10:40:13;;;;;;;3.03;2.15;;;;;;;40.80;18.18;99547.84;5052357;28;20053;-69
2021/07/25 10:42:51;;;;;;;3.63;2.95;;;;;;;41.82;17.08;99538.53;5052915;28;20049;-69
2021/07/25 10:45:18;;;;;;;3.38;2.75;;;;;;;42.08;17.06;99545.84;5050907;28;20401;-70
2021/07/25 10:47:47;;;;;;;2.92;2.55;;;;;;;43.09;15.97;99535.16;5051941;28;20509;-68
2021/07/25 10:50:20;;;;;;;3.03;2.50;;;;;;;44.47;14.66;99543.91;5055518;28;20503;-69
2021/07/25 10:53:02;;;;;;;4.43;2.40;;;;;;;44.05;15.13;99541.75;5055305;28;20053;-69
2021/07/25 10:55:47;;;;;;;3.05;2.47;;;;;;;44.27;14.64;99546.28;5055386;28;20048;-70
2021/07/25 10:58:16;;;;;;;3.38;2.85;;;;;;;44.25;14.15;99548.19;5054241;28;20049;-70
2021/07/25 11:00:46;;;;;;;3.10;2.15;;;;;;;44.05;14.54;99543.88;5053698;28;20397;-69
2021/07/25 11:03:42;;;;;;;2.78;2.58;;;;;;;44.34;14.55;99541.81;5054254;28;20056;-69
2021/07/25 11:06:17;;;;;;;2.90;2.50;;;;;;;44.14;15.04;99541.28;5054952;28;20414;-69
2021/07/25 11:08:46;;;;;;;2.97;2.60;;;;;;;43.66;15.71;99545.63;5055614;28;20049;-70
2021/07/25 11:11:54;;;;;;;2.60;2.38;;;;;;;44.14;14.88;99544.22;5055119;28;20053;-69
2021/07/25 11:15:03;;;;;;;3.38;2.65;;;;;;;45.54;13.52;99537.81;5054522;28;20056;-69
2021/07/25 11:17:57;;;;;;;4.45;2.30;;;;;;;43.63;15.91;99540.91;5054335;28;20044;-69
2021/07/25 11:20:58;;;;;;;3.88;2.40;;;;;;;41.12;18.01;99558.91;5034606;28;20061;-69
2021/07/25 11:23:39;;;;;;;3.25;2.95;;;;;;;39.99;19.03;99530.88;5036818;28;20049;-69
2021/07/25 11:26:35;;;;;;;3.53;2.78;;;;;;;42.87;17.00;99530.56;5054576;28;20045;-69
2021/07/25 11:29:06;;;;;;;4.32;2.90;;;;;;;44.82;15.59;99527.69;5054521;28;20494;-69
2021/07/25 11:31:52;;;;;;;3.88;2.78;;;;;;;44.71;14.42;99519.16;5055131;28;20401;-69
2021/07/25 11:34:31;;;;;;;4.55;3.25;;;;;;;45.66;13.80;99535.34;5054499;28;20060;-69
2021/07/25 11:37:01;;;;;;;3.60;2.38;;;;;;;44.14;13.94;99532.47;5060616;28;20056;-69
2021/07/25 11:39:29;;;;;;;5.28;3.35;;;;;;;44.69;13.77;99516.84;5053351;28;20052;-69
2021/07/25 11:41:56;;;;;;;2.83;2.30;;;;;;;44.48;13.75;99516.91;5053660;28;20393;-69